sensor_id;sensor_type;location;lat;lon;timestamp;pressure;altitude;pressure_sealevel;temperature;humidity
24858;BME280;12935;50.782;6.074;2023-05-15T00:00:29;99406.22;;;14.12;100.00
24858;BME280;12935;50.782;6.074;2023-05-15T00:02:54;99397.25;;;14.08;100.00
24858;BME280;12935;50.782;6.074;2023-05-15T00:05:21;99399.53;;;14.13;100.00
24858;BME280;12935;50.782;6.074;2023-05-15T00:07:46;99395.38;;;14.01;100.00
24858;BME280;12935;50.782;6.074;2023-05-15T00:10:11;99396.72;;;13.93;100.00
24858;BME280;12935;50.782;6.074;2023-05-15T00:12:37;99397.50;;;13.94;100.00
24858;BME280;12935;50.782;6.074;2023-05-15T00:15:02;99396.59;;;14.00;100.00
24858;BME280;12935;50.782;6.074;2023-05-15T00:17:27;99380.66;;;13.92;100.00
24858;BME280;12935;50.782;6.074;2023-05-15T00:19:53;99383.09;;;13.86;100.00
24858;BME280;12935;50.782;6.074;2023-05-15T00:22:23;99385.91;;;13.83;100.00
24858;BME280;12935;50.782;6.074;2023-05-15T00:24:48;99378.03;;;13.85;100.00
24858;BME280;12935;50.782;6.074;2023-05-15T00:27:14;99368.66;;;13.82;100.00
24858;BME280;12935;50.782;6.074;2023-05-15T00:29:39;99369.81;;;13.85;100.00
24858;BME280;12935;50.782;6.074;2023-05-15T00:32:05;99363.53;;;13.84;100.00
24858;BME280;12935;50.782;6.074;2023-05-15T00:34:30;99363.94;;;13.83;100.00
24858;BME280;12935;50.782;6.074;2023-05-15T00:36:55;99364.31;;;13.85;100.00
24858;BME280;12935;50.782;6.074;2023-05-15T00:39:21;99368.34;;;13.77;100.00
24858;BME280;12935;50.782;6.074;2023-05-15T00:41:47;99360.19;;;13.73;100.00
24858;BME280;12935;50.782;6.074;2023-05-15T00:44:15;99356.72;;;13.69;100.00
24858;BME280;12935;50.782;6.074;2023-05-15T00:46:41;99358.47;;;13.83;100.00
24858;BME280;12935;50.782;6.074;2023-05-15T00:49:09;99353.38;;;13.81;100.00
24858;BME280;12935;50.782;6.074;2023-05-15T00:51:39;99357.69;;;13.82;100.00
24858;BME280;12935;50.782;6.074;2023-05-15T00:54:06;99354.81;;;13.66;100.00
24858;BME280;12935;50.782;6.074;2023-05-15T00:56:33;99357.38;;;13.53;100.00
24858;BME280;12935;50.782;6.074;2023-05-15T00:58:59;99357.66;;;13.59;100.00
24858;BME280;12935;50.782;6.074;2023-05-15T01:01:26;99351.28;;;13.65;100.00
24858;BME280;12935;50.782;6.074;2023-05-15T01:03:52;99352.13;;;13.62;100.00
24858;BME280;12935;50.782;6.074;2023-05-15T01:06:18;99355.34;;;13.57;100.00
24858;BME280;12935;50.782;6.074;2023-05-15T01:08:47;99345.31;;;13.47;100.00
24858;BME280;12935;50.782;6.074;2023-05-15T01:11:15;99345.25;;;13.51;100.00
24858;BME280;12935;50.782;6.074;2023-05-15T01:13:41;99343.56;;;13.57;100.00
24858;BME280;12935;50.782;6.074;2023-05-15T01:16:07;99340.69;;;13.41;100.00
24858;BME280;12935;50.782;6.074;2023-05-15T01:18:33;99341.25;;;13.32;100.00
24858;BME280;12935;50.782;6.074;2023-05-15T01:28:58;99340.50;;;13.01;100.00
24858;BME280;12935;50.782;6.074;2023-05-15T01:31:30;99342.31;;;13.11;100.00
24858;BME280;12935;50.782;6.074;2023-05-15T01:34:00;99341.56;;;13.07;100.00
24858;BME280;12935;50.782;6.074;2023-05-15T01:36:37;99354.22;;;13.01;100.00
24858;BME280;12935;50.782;6.074;2023-05-15T01:39:04;99354.66;;;12.96;100.00
24858;BME280;12935;50.782;6.074;2023-05-15T01:41:54;99350.84;;;12.90;100.00
24858;BME280;12935;50.782;6.074;2023-05-15T01:44:50;99350.84;;;12.90;100.00
24858;BME280;12935;50.782;6.074;2023-05-15T01:47:21;99352.06;;;12.85;100.00
24858;BME280;12935;50.782;6.074;2023-05-15T01:49:53;99345.00;;;12.88;100.00
24858;BME280;12935;50.782;6.074;2023-05-15T01:52:25;99349.59;;;12.94;100.00
24858;BME280;12935;50.782;6.074;2023-05-15T01:54:53;99346.72;;;13.05;100.00
24858;BME280;12935;50.782;6.074;2023-05-15T01:57:20;99351.75;;;13.07;100.00
24858;BME280;12935;50.782;6.074;2023-05-15T01:59:46;99350.16;;;12.82;100.00
24858;BME280;12935;50.782;6.074;2023-05-15T02:02:12;99356.22;;;12.67;100.00
24858;BME280;12935;50.782;6.074;2023-05-15T02:04:39;99361.28;;;12.72;100.00
24858;BME280;12935;50.782;6.074;2023-05-15T02:07:06;99364.41;;;12.70;100.00
24858;BME280;12935;50.782;6.074;2023-05-15T02:09:32;99355.81;;;12.68;100.00
24858;BME280;12935;50.782;6.074;2023-05-15T02:11:59;99368.53;;;12.55;100.00
24858;BME280;12935;50.782;6.074;2023-05-15T02:14:27;99363.94;;;12.45;100.00
24858;BME280;12935;50.782;6.074;2023-05-15T02:16:53;99363.28;;;12.34;100.00
24858;BME280;12935;50.782;6.074;2023-05-15T02:19:18;99368.84;;;12.26;100.00
24858;BME280;12935;50.782;6.074;2023-05-15T02:21:43;99354.78;;;12.24;100.00
24858;BME280;12935;50.782;6.074;2023-05-15T02:24:08;99356.41;;;12.18;100.00
24858;BME280;12935;50.782;6.074;2023-05-15T02:31:48;99356.53;;;12.04;100.00
24858;BME280;12935;50.782;6.074;2023-05-15T02:34:41;99362.03;;;12.04;100.00
24858;BME280;12935;50.782;6.074;2023-05-15T02:37:13;99360.91;;;11.98;100.00
24858;BME280;12935;50.782;6.074;2023-05-15T02:39:42;99354.59;;;12.05;100.00
24858;BME280;12935;50.782;6.074;2023-05-15T02:42:11;99355.41;;;12.02;100.00
24858;BME280;12935;50.782;6.074;2023-05-15T02:44:37;99352.69;;;11.98;100.00
24858;BME280;12935;50.782;6.074;2023-05-15T02:47:04;99353.97;;;11.86;100.00
24858;BME280;12935;50.782;6.074;2023-05-15T02:49:30;99356.34;;;11.84;100.00
24858;BME280;12935;50.782;6.074;2023-05-15T02:51:55;99350.50;;;11.82;100.00
24858;BME280;12935;50.782;6.074;2023-05-15T02:54:20;99350.88;;;11.81;100.00
24858;BME280;12935;50.782;6.074;2023-05-15T02:56:46;99347.41;;;11.80;100.00
24858;BME280;12935;50.782;6.074;2023-05-15T02:59:11;99345.84;;;11.79;100.00
24858;BME280;12935;50.782;6.074;2023-05-15T03:01:42;99352.91;;;11.73;100.00
24858;BME280;12935;50.782;6.074;2023-05-15T03:04:07;99357.59;;;11.76;100.00
24858;BME280;12935;50.782;6.074;2023-05-15T03:06:33;99340.78;;;11.74;100.00
24858;BME280;12935;50.782;6.074;2023-05-15T03:08:58;99345.09;;;11.72;100.00
24858;BME280;12935;50.782;6.074;2023-05-15T03:11:23;99337.56;;;11.83;100.00
24858;BME280;12935;50.782;6.074;2023-05-15T03:13:49;99338.22;;;11.98;100.00
24858;BME280;12935;50.782;6.074;2023-05-15T03:16:14;99332.19;;;12.13;100.00
24858;BME280;12935;50.782;6.074;2023-05-15T03:18:39;99331.41;;;12.13;100.00
24858;BME280;12935;50.782;6.074;2023-05-15T03:21:06;99323.31;;;12.02;100.00
24858;BME280;12935;50.782;6.074;2023-05-15T03:23:31;99329.66;;;11.96;100.00
24858;BME280;12935;50.782;6.074;2023-05-15T03:25:56;99324.66;;;11.87;100.00
24858;BME280;12935;50.782;6.074;2023-05-15T03:28:22;99327.81;;;11.82;100.00
24858;BME280;12935;50.782;6.074;2023-05-15T03:30:47;99318.81;;;11.81;100.00
24858;BME280;12935;50.782;6.074;2023-05-15T03:33:12;99319.78;;;12.02;100.00
24858;BME280;12935;50.782;6.074;2023-05-15T03:35:37;99319.59;;;12.19;100.00
24858;BME280;12935;50.782;6.074;2023-05-15T03:38:03;99320.25;;;12.30;100.00
24858;BME280;12935;50.782;6.074;2023-05-15T03:40:28;99324.28;;;12.22;100.00
24858;BME280;12935;50.782;6.074;2023-05-15T03:42:53;99328.09;;;12.28;100.00
24858;BME280;12935;50.782;6.074;2023-05-15T03:45:19;99315.13;;;11.99;100.00
24858;BME280;12935;50.782;6.074;2023-05-15T03:47:45;99318.38;;;11.86;100.00
24858;BME280;12935;50.782;6.074;2023-05-15T03:50:10;99328.16;;;11.87;100.00
24858;BME280;12935;50.782;6.074;2023-05-15T03:52:35;99325.13;;;11.78;100.00
24858;BME280;12935;50.782;6.074;2023-05-15T03:55:01;99319.31;;;11.69;100.00
24858;BME280;12935;50.782;6.074;2023-05-15T03:57:26;99320.84;;;11.70;100.00
24858;BME280;12935;50.782;6.074;2023-05-15T03:59:52;99322.13;;;11.62;100.00
24858;BME280;12935;50.782;6.074;2023-05-15T04:02:17;99322.97;;;11.52;100.00
24858;BME280;12935;50.782;6.074;2023-05-15T04:04:42;99326.16;;;11.47;100.00
24858;BME280;12935;50.782;6.074;2023-05-15T04:07:08;99323.38;;;11.50;100.00
24858;BME280;12935;50.782;6.074;2023-05-15T04:09:34;99318.63;;;11.58;100.00
24858;BME280;12935;50.782;6.074;2023-05-15T04:11:59;99315.81;;;11.65;100.00
24858;BME280;12935;50.782;6.074;2023-05-15T04:14:24;99322.50;;;11.64;100.00
24858;BME280;12935;50.782;6.074;2023-05-15T04:16:50;99322.84;;;11.66;100.00
24858;BME280;12935;50.782;6.074;2023-05-15T04:19:15;99320.47;;;11.72;100.00
24858;BME280;12935;50.782;6.074;2023-05-15T04:21:40;99314.63;;;11.66;100.00
24858;BME280;12935;50.782;6.074;2023-05-15T04:24:06;99313.06;;;11.65;100.00
24858;BME280;12935;50.782;6.074;2023-05-15T04:26:31;99318.59;;;11.62;100.00
24858;BME280;12935;50.782;6.074;2023-05-15T04:28:57;99319.44;;;11.55;100.00
24858;BME280;12935;50.782;6.074;2023-05-15T04:31:24;99325.69;;;11.55;100.00
24858;BME280;12935;50.782;6.074;2023-05-15T04:33:50;99322.91;;;11.63;100.00
24858;BME280;12935;50.782;6.074;2023-05-15T04:36:15;99318.22;;;11.59;100.00
24858;BME280;12935;50.782;6.074;2023-05-15T04:38:40;99323.69;;;11.63;100.00
24858;BME280;12935;50.782;6.074;2023-05-15T04:41:06;99334.66;;;11.56;100.00
24858;BME280;12935;50.782;6.074;2023-05-15T04:43:31;99332.41;;;11.47;100.00
24858;BME280;12935;50.782;6.074;2023-05-15T04:45:56;99338.28;;;11.46;100.00
24858;BME280;12935;50.782;6.074;2023-05-15T04:48:22;99339.50;;;11.38;100.00
24858;BME280;12935;50.782;6.074;2023-05-15T04:50:47;99335.63;;;11.35;100.00
24858;BME280;12935;50.782;6.074;2023-05-15T04:53:12;99339.94;;;11.33;100.00
24858;BME280;12935;50.782;6.074;2023-05-15T04:55:38;99341.03;;;11.46;100.00
24858;BME280;12935;50.782;6.074;2023-05-15T04:58:03;99344.00;;;11.62;100.00
24858;BME280;12935;50.782;6.074;2023-05-15T05:00:29;99336.03;;;11.82;100.00
24858;BME280;12935;50.782;6.074;2023-05-15T05:02:55;99342.84;;;11.59;100.00
24858;BME280;12935;50.782;6.074;2023-05-15T05:05:20;99347.19;;;11.53;100.00
24858;BME280;12935;50.782;6.074;2023-05-15T05:07:45;99338.66;;;11.48;100.00
24858;BME280;12935;50.782;6.074;2023-05-15T05:10:11;99344.19;;;11.37;100.00
24858;BME280;12935;50.782;6.074;2023-05-15T05:12:36;99337.28;;;11.22;100.00
24858;BME280;12935;50.782;6.074;2023-05-15T05:15:02;99343.25;;;11.06;100.00
24858;BME280;12935;50.782;6.074;2023-05-15T05:17:28;99333.16;;;11.00;100.00
24858;BME280;12935;50.782;6.074;2023-05-15T05:19:53;99343.63;;;11.08;100.00
24858;BME280;12935;50.782;6.074;2023-05-15T05:22:19;99341.28;;;11.10;100.00
24858;BME280;12935;50.782;6.074;2023-05-15T05:24:44;99340.88;;;11.12;100.00
24858;BME280;12935;50.782;6.074;2023-05-15T05:27:09;99343.69;;;10.98;100.00
24858;BME280;12935;50.782;6.074;2023-05-15T05:29:35;99341.00;;;10.87;100.00
24858;BME280;12935;50.782;6.074;2023-05-15T05:32:00;99348.31;;;11.08;100.00
24858;BME280;12935;50.782;6.074;2023-05-15T05:34:25;99347.16;;;11.05;100.00
24858;BME280;12935;50.782;6.074;2023-05-15T05:36:50;99342.44;;;11.13;100.00
24858;BME280;12935;50.782;6.074;2023-05-15T05:39:16;99352.69;;;10.98;100.00
24858;BME280;12935;50.782;6.074;2023-05-15T05:41:42;99358.16;;;10.95;100.00
24858;BME280;12935;50.782;6.074;2023-05-15T05:44:07;99368.63;;;11.10;100.00
24858;BME280;12935;50.782;6.074;2023-05-15T05:46:33;99363.88;;;11.18;100.00
24858;BME280;12935;50.782;6.074;2023-05-15T05:48:58;99356.97;;;10.99;100.00
24858;BME280;12935;50.782;6.074;2023-05-15T05:51:23;99354.66;;;10.90;100.00
24858;BME280;12935;50.782;6.074;2023-05-15T05:53:48;99352.38;;;10.85;100.00
24858;BME280;12935;50.782;6.074;2023-05-15T05:56:14;99367.22;;;10.77;100.00
24858;BME280;12935;50.782;6.074;2023-05-15T05:58:39;99362.16;;;10.79;100.00
24858;BME280;12935;50.782;6.074;2023-05-15T06:01:05;99366.03;;;10.82;100.00
24858;BME280;12935;50.782;6.074;2023-05-15T06:03:31;99360.19;;;10.83;100.00
24858;BME280;12935;50.782;6.074;2023-05-15T06:05:56;99368.78;;;10.78;100.00
24858;BME280;12935;50.782;6.074;2023-05-15T06:08:21;99368.38;;;10.83;100.00
24858;BME280;12935;50.782;6.074;2023-05-15T06:10:47;99370.34;;;10.83;100.00
24858;BME280;12935;50.782;6.074;2023-05-15T06:13:12;99373.84;;;10.83;100.00
24858;BME280;12935;50.782;6.074;2023-05-15T06:15:39;99378.13;;;10.84;100.00
24858;BME280;12935;50.782;6.074;2023-05-15T06:18:05;99384.00;;;10.83;100.00
24858;BME280;12935;50.782;6.074;2023-05-15T06:20:30;99394.09;;;10.93;100.00
24858;BME280;12935;50.782;6.074;2023-05-15T06:22:56;99381.97;;;11.01;100.00
24858;BME280;12935;50.782;6.074;2023-05-15T06:25:21;99385.75;;;11.18;100.00
24858;BME280;12935;50.782;6.074;2023-05-15T06:27:46;99402.00;;;11.43;100.00
24858;BME280;12935;50.782;6.074;2023-05-15T06:30:12;99397.41;;;11.29;100.00
24858;BME280;12935;50.782;6.074;2023-05-15T06:32:39;99402.50;;;11.27;100.00
24858;BME280;12935;50.782;6.074;2023-05-15T06:35:05;99400.97;;;11.22;100.00
24858;BME280;12935;50.782;6.074;2023-05-15T06:37:30;99395.94;;;11.14;100.00
24858;BME280;12935;50.782;6.074;2023-05-15T06:39:55;99396.34;;;11.12;100.00
24858;BME280;12935;50.782;6.074;2023-05-15T06:42:21;99399.50;;;11.07;100.00
24858;BME280;12935;50.782;6.074;2023-05-15T06:44:46;99393.94;;;11.21;100.00
24858;BME280;12935;50.782;6.074;2023-05-15T06:47:13;99405.59;;;11.33;100.00
24858;BME280;12935;50.782;6.074;2023-05-15T06:49:39;99405.91;;;11.45;100.00
24858;BME280;12935;50.782;6.074;2023-05-15T06:52:04;99413.16;;;11.66;100.00
24858;BME280;12935;50.782;6.074;2023-05-15T06:54:30;99407.56;;;11.84;100.00
24858;BME280;12935;50.782;6.074;2023-05-15T06:56:55;99411.44;;;11.90;100.00
24858;BME280;12935;50.782;6.074;2023-05-15T06:59:20;99414.56;;;11.92;100.00
24858;BME280;12935;50.782;6.074;2023-05-15T07:01:45;99410.91;;;12.06;100.00
24858;BME280;12935;50.782;6.074;2023-05-15T07:04:11;99413.38;;;11.93;100.00
24858;BME280;12935;50.782;6.074;2023-05-15T07:06:36;99413.72;;;11.99;100.00
24858;BME280;12935;50.782;6.074;2023-05-15T07:09:02;99410.84;;;12.13;100.00
24858;BME280;12935;50.782;6.074;2023-05-15T07:11:27;99404.53;;;12.19;100.00
24858;BME280;12935;50.782;6.074;2023-05-15T07:13:53;99405.88;;;12.01;100.00
24858;BME280;12935;50.782;6.074;2023-05-15T07:16:18;99399.38;;;11.84;100.00
24858;BME280;12935;50.782;6.074;2023-05-15T07:18:44;99393.03;;;11.94;100.00
24858;BME280;12935;50.782;6.074;2023-05-15T07:21:09;99398.88;;;11.96;100.00
24858;BME280;12935;50.782;6.074;2023-05-15T07:23:34;99398.56;;;11.87;100.00
24858;BME280;12935;50.782;6.074;2023-05-15T07:25:59;99400.47;;;11.93;100.00
24858;BME280;12935;50.782;6.074;2023-05-15T07:28:25;99394.22;;;11.93;100.00
24858;BME280;12935;50.782;6.074;2023-05-15T07:30:50;99397.97;;;11.62;100.00
24858;BME280;12935;50.782;6.074;2023-05-15T07:33:16;99397.06;;;11.75;100.00
24858;BME280;12935;50.782;6.074;2023-05-15T07:35:42;99390.44;;;11.76;100.00
24858;BME280;12935;50.782;6.074;2023-05-15T07:38:07;99390.44;;;11.76;100.00
24858;BME280;12935;50.782;6.074;2023-05-15T07:40:32;99397.63;;;12.04;100.00
24858;BME280;12935;50.782;6.074;2023-05-15T07:42:58;99395.25;;;12.44;100.00
24858;BME280;12935;50.782;6.074;2023-05-15T07:45:23;99385.56;;;12.70;100.00
24858;BME280;12935;50.782;6.074;2023-05-15T07:47:49;99391.00;;;12.39;100.00
24858;BME280;12935;50.782;6.074;2023-05-15T07:50:16;99394.34;;;12.20;100.00
24858;BME280;12935;50.782;6.074;2023-05-15T07:52:41;99388.38;;;12.28;100.00
24858;BME280;12935;50.782;6.074;2023-05-15T07:55:08;99384.38;;;12.37;100.00
24858;BME280;12935;50.782;6.074;2023-05-15T07:57:33;99381.91;;;12.46;100.00
24858;BME280;12935;50.782;6.074;2023-05-15T07:59:59;99385.22;;;12.64;100.00
24858;BME280;12935;50.782;6.074;2023-05-15T08:02:25;99376.19;;;12.67;100.00
24858;BME280;12935;50.782;6.074;2023-05-15T08:04:50;99386.72;;;12.72;100.00
24858;BME280;12935;50.782;6.074;2023-05-15T08:07:16;99382.81;;;12.70;100.00
24858;BME280;12935;50.782;6.074;2023-05-15T08:09:41;99386.22;;;12.81;100.00
24858;BME280;12935;50.782;6.074;2023-05-15T08:12:22;99375.53;;;12.90;100.00
24858;BME280;12935;50.782;6.074;2023-05-15T08:17:13;99383.59;;;13.00;100.00
24858;BME280;12935;50.782;6.074;2023-05-15T08:19:38;99380.03;;;13.04;100.00
24858;BME280;12935;50.782;6.074;2023-05-15T08:22:03;99381.91;;;13.10;100.00
24858;BME280;12935;50.782;6.074;2023-05-15T08:24:29;99364.56;;;13.20;100.00
24858;BME280;12935;50.782;6.074;2023-05-15T08:26:54;99379.53;;;13.12;100.00
24858;BME280;12935;50.782;6.074;2023-05-15T08:29:20;99372.25;;;13.29;100.00
24858;BME280;12935;50.782;6.074;2023-05-15T08:31:45;99367.22;;;13.51;100.00
24858;BME280;12935;50.782;6.074;2023-05-15T08:34:10;99364.34;;;13.58;100.00
24858;BME280;12935;50.782;6.074;2023-05-15T08:36:35;99361.50;;;13.65;100.00
24858;BME280;12935;50.782;6.074;2023-05-15T08:39:01;99365.31;;;13.71;100.00
24858;BME280;12935;50.782;6.074;2023-05-15T08:41:37;99361.63;;;13.81;100.00
24858;BME280;12935;50.782;6.074;2023-05-15T08:44:05;99365.97;;;13.79;100.00
24858;BME280;12935;50.782;6.074;2023-05-15T08:46:31;99359.91;;;14.11;100.00
24858;BME280;12935;50.782;6.074;2023-05-15T08:48:57;99354.25;;;13.98;100.00
24858;BME280;12935;50.782;6.074;2023-05-15T08:51:23;99350.41;;;14.15;100.00
24858;BME280;12935;50.782;6.074;2023-05-15T08:53:49;99356.69;;;14.16;100.00
24858;BME280;12935;50.782;6.074;2023-05-15T08:56:15;99353.59;;;14.14;100.00
24858;BME280;12935;50.782;6.074;2023-05-15T08:58:41;99353.34;;;14.04;100.00
24858;BME280;12935;50.782;6.074;2023-05-15T09:01:07;99335.75;;;14.22;100.00
24858;BME280;12935;50.782;6.074;2023-05-15T09:03:33;99347.41;;;14.49;100.00
24858;BME280;12935;50.782;6.074;2023-05-15T09:05:58;99358.88;;;14.24;100.00
24858;BME280;12935;50.782;6.074;2023-05-15T09:08:26;99356.16;;;14.44;98.23
24858;BME280;12935;50.782;6.074;2023-05-15T09:10:55;99357.84;;;14.78;97.71
24858;BME280;12935;50.782;6.074;2023-05-15T09:13:20;99365.66;;;15.15;97.66
24858;BME280;12935;50.782;6.074;2023-05-15T09:15:45;99355.59;;;15.08;95.54
24858;BME280;12935;50.782;6.074;2023-05-15T09:18:13;99354.63;;;14.99;97.04
24858;BME280;12935;50.782;6.074;2023-05-15T09:20:39;99351.09;;;14.98;100.00
24858;BME280;12935;50.782;6.074;2023-05-15T09:23:21;99359.53;;;14.71;97.14
24858;BME280;12935;50.782;6.074;2023-05-15T09:25:47;99355.91;;;14.94;94.84
24858;BME280;12935;50.782;6.074;2023-05-15T09:28:25;99361.69;;;14.80;94.82
24858;BME280;12935;50.782;6.074;2023-05-15T09:30:57;99357.72;;;15.01;98.19
24858;BME280;12935;50.782;6.074;2023-05-15T09:33:38;99347.41;;;15.05;100.00
24858;BME280;12935;50.782;6.074;2023-05-15T09:36:06;99355.09;;;15.46;100.00
24858;BME280;12935;50.782;6.074;2023-05-15T09:38:32;99345.13;;;15.52;100.00
24858;BME280;12935;50.782;6.074;2023-05-15T09:41:05;99352.97;;;15.54;100.00
24858;BME280;12935;50.782;6.074;2023-05-15T09:43:38;99359.28;;;16.16;100.00
24858;BME280;12935;50.782;6.074;2023-05-15T09:46:04;99361.19;;;16.19;100.00
24858;BME280;12935;50.782;6.074;2023-05-15T09:48:30;99366.09;;;16.11;98.16
24858;BME280;12935;50.782;6.074;2023-05-15T09:50:56;99360.16;;;16.41;94.81
24858;BME280;12935;50.782;6.074;2023-05-15T09:53:22;99358.91;;;16.30;88.24
24858;BME280;12935;50.782;6.074;2023-05-15T09:55:48;99362.38;;;16.46;86.97
24858;BME280;12935;50.782;6.074;2023-05-15T09:58:16;99362.25;;;16.66;85.44
24858;BME280;12935;50.782;6.074;2023-05-15T10:00:42;99345.09;;;17.13;90.00
24858;BME280;12935;50.782;6.074;2023-05-15T10:03:08;99355.13;;;17.07;87.21
24858;BME280;12935;50.782;6.074;2023-05-15T10:05:34;99349.69;;;17.54;90.04
24858;BME280;12935;50.782;6.074;2023-05-15T10:08:00;99346.59;;;17.52;87.86
24858;BME280;12935;50.782;6.074;2023-05-15T10:10:27;99343.81;;;17.77;86.97
24858;BME280;12935;50.782;6.074;2023-05-15T10:12:55;99341.94;;;17.62;82.02
24858;BME280;12935;50.782;6.074;2023-05-15T10:15:26;99344.59;;;17.65;80.12
24858;BME280;12935;50.782;6.074;2023-05-15T10:17:52;99341.13;;;18.43;81.24
24858;BME280;12935;50.782;6.074;2023-05-15T10:20:19;99343.06;;;18.33;77.10
24858;BME280;12935;50.782;6.074;2023-05-15T10:22:50;99348.84;;;18.26;77.95
24858;BME280;12935;50.782;6.074;2023-05-15T10:25:17;99342.63;;;18.56;72.72
24858;BME280;12935;50.782;6.074;2023-05-15T10:27:45;99336.13;;;18.50;73.38
24858;BME280;12935;50.782;6.074;2023-05-15T10:30:14;99336.63;;;18.80;74.12
24858;BME280;12935;50.782;6.074;2023-05-15T10:32:41;99332.78;;;18.55;76.25
24858;BME280;12935;50.782;6.074;2023-05-15T10:35:08;99328.22;;;18.62;74.43
24858;BME280;12935;50.782;6.074;2023-05-15T10:37:34;99332.00;;;18.55;72.39
24858;BME280;12935;50.782;6.074;2023-05-15T10:40:00;99327.19;;;18.68;74.07
24858;BME280;12935;50.782;6.074;2023-05-15T10:42:27;99323.19;;;19.00;73.32
24858;BME280;12935;50.782;6.074;2023-05-15T10:44:53;99304.00;;;19.15;72.63
24858;BME280;12935;50.782;6.074;2023-05-15T10:47:24;99323.84;;;19.13;65.66
24858;BME280;12935;50.782;6.074;2023-05-15T10:49:50;99326.47;;;19.57;67.93
24858;BME280;12935;50.782;6.074;2023-05-15T10:52:15;99320.66;;;20.28;66.84
24858;BME280;12935;50.782;6.074;2023-05-15T10:54:40;99309.72;;;19.88;63.92
24858;BME280;12935;50.782;6.074;2023-05-15T10:57:07;99316.03;;;20.07;63.94
24858;BME280;12935;50.782;6.074;2023-05-15T10:59:33;99324.06;;;20.41;61.40
24858;BME280;12935;50.782;6.074;2023-05-15T11:02:32;99314.50;;;20.42;63.59
24858;BME280;12935;50.782;6.074;2023-05-15T11:05:02;99319.59;;;20.07;59.22
24858;BME280;12935;50.782;6.074;2023-05-15T11:07:28;99309.88;;;19.75;60.09
24858;BME280;12935;50.782;6.074;2023-05-15T11:09:54;99321.59;;;20.25;62.94
24858;BME280;12935;50.782;6.074;2023-05-15T11:12:20;99323.28;;;20.22;61.82
24858;BME280;12935;50.782;6.074;2023-05-15T11:17:24;99315.56;;;19.63;61.33
24858;BME280;12935;50.782;6.074;2023-05-15T11:22:32;99307.38;;;19.10;64.11
24858;BME280;12935;50.782;6.074;2023-05-15T11:27:32;99302.81;;;19.25;63.58
24858;BME280;12935;50.782;6.074;2023-05-15T11:33:00;99293.38;;;19.04;62.94
24858;BME280;12935;50.782;6.074;2023-05-15T11:35:29;99294.19;;;19.23;63.24
24858;BME280;12935;50.782;6.074;2023-05-15T11:40:30;99291.25;;;19.17;64.42
24858;BME280;12935;50.782;6.074;2023-05-15T11:43:04;99283.53;;;19.80;61.54
24858;BME280;12935;50.782;6.074;2023-05-15T11:45:32;99290.41;;;19.48;61.88
24858;BME280;12935;50.782;6.074;2023-05-15T11:47:59;99285.22;;;19.59;63.48
24858;BME280;12935;50.782;6.074;2023-05-15T11:50:25;99290.63;;;20.08;63.91
24858;BME280;12935;50.782;6.074;2023-05-15T11:52:51;99289.53;;;20.24;61.83
24858;BME280;12935;50.782;6.074;2023-05-15T11:55:18;99290.31;;;20.43;61.26
24858;BME280;12935;50.782;6.074;2023-05-15T11:57:46;99278.97;;;20.74;59.44
24858;BME280;12935;50.782;6.074;2023-05-15T12:00:12;99282.16;;;20.81;58.96
24858;BME280;12935;50.782;6.074;2023-05-15T12:02:38;99284.81;;;20.76;59.96
24858;BME280;12935;50.782;6.074;2023-05-15T12:05:06;99287.16;;;20.68;60.50
24858;BME280;12935;50.782;6.074;2023-05-15T12:07:35;99271.44;;;20.98;60.29
24858;BME280;12935;50.782;6.074;2023-05-15T12:10:01;99279.63;;;21.01;57.68
24858;BME280;12935;50.782;6.074;2023-05-15T12:12:26;99272.44;;;21.19;57.59
24858;BME280;12935;50.782;6.074;2023-05-15T12:14:56;99268.06;;;20.94;59.29
24858;BME280;12935;50.782;6.074;2023-05-15T12:17:21;99274.06;;;21.34;59.45
24858;BME280;12935;50.782;6.074;2023-05-15T12:19:48;99267.88;;;21.40;58.68
24858;BME280;12935;50.782;6.074;2023-05-15T12:22:14;99270.28;;;21.23;58.65
24858;BME280;12935;50.782;6.074;2023-05-15T12:24:41;99265.88;;;21.79;57.52
24858;BME280;12935;50.782;6.074;2023-05-15T12:27:07;99277.84;;;21.46;57.36
24858;BME280;12935;50.782;6.074;2023-05-15T12:29:33;99268.69;;;21.31;56.20
24858;BME280;12935;50.782;6.074;2023-05-15T12:31:59;99268.78;;;21.60;56.24
24858;BME280;12935;50.782;6.074;2023-05-15T12:34:24;99273.84;;;21.71;55.56
24858;BME280;12935;50.782;6.074;2023-05-15T12:36:50;99267.78;;;22.70;54.47
24858;BME280;12935;50.782;6.074;2023-05-15T12:39:15;99269.44;;;22.62;52.90
24858;BME280;12935;50.782;6.074;2023-05-15T12:41:40;99267.63;;;22.44;53.57
24858;BME280;12935;50.782;6.074;2023-05-15T12:44:06;99268.38;;;21.77;54.88
24858;BME280;12935;50.782;6.074;2023-05-15T12:46:39;99260.44;;;21.60;53.51
24858;BME280;12935;50.782;6.074;2023-05-15T12:49:05;99260.41;;;22.37;51.76
24858;BME280;12935;50.782;6.074;2023-05-15T12:51:30;99256.75;;;23.60;48.52
24858;BME280;12935;50.782;6.074;2023-05-15T12:53:56;99258.75;;;24.89;46.19
24858;BME280;12935;50.782;6.074;2023-05-15T12:56:22;99249.97;;;23.32;46.77
24858;BME280;12935;50.782;6.074;2023-05-15T12:58:48;99250.53;;;21.68;52.99
24858;BME280;12935;50.782;6.074;2023-05-15T13:01:14;99251.66;;;22.89;50.96
24858;BME280;12935;50.782;6.074;2023-05-15T13:03:41;99255.31;;;21.68;54.04
24858;BME280;12935;50.782;6.074;2023-05-15T13:06:08;99271.22;;;19.90;60.85
24858;BME280;12935;50.782;6.074;2023-05-15T13:08:38;99265.38;;;19.20;68.36
24858;BME280;12935;50.782;6.074;2023-05-15T13:11:04;99273.06;;;19.66;68.05
24858;BME280;12935;50.782;6.074;2023-05-15T13:13:44;99273.19;;;20.44;62.60
24858;BME280;12935;50.782;6.074;2023-05-15T13:16:17;99273.97;;;19.63;66.73
24858;BME280;12935;50.782;6.074;2023-05-15T13:18:43;99276.44;;;20.85;64.29